Flight Track Log - Related Links

Times and Time Zones

All times are in EDT time to prevent confusion due to time zone crossing. See the SKW2901 flight status page for this flight to view local times or setup timezone preferences in your user account.

Time Position Orientation Groundspeed Altitude Reporting Facility
EDT Latitude Longitude Course Direction KTS MPH feet Rate Location/Type
Wed 10:29:40 AM 40.8075 -111.9619 304° West 177 204 4,900  Level Salt Lake Center
Wed 10:30:41 AM 40.8350 -112.0150 304° West 222 255 6,700 2,103 Climbing Salt Lake Center
Wed 10:31:17 AM 40.8314 -112.0561 263° West 235 270 8,300 2,776 Climbing Salt Lake Center
Wed 10:31:48 AM 40.8292 -112.1161 267° West 245 282 9,800 1,935 Climbing Salt Lake Center
Wed 10:32:19 AM 40.8225 -112.1494 255° West 260 299 10,300 2,283 Climbing Salt Lake Center
Wed 10:33:20 AM 40.7844 -112.2642 246° West 290 334 13,300 2,488 Climbing Salt Lake Center
Wed 10:34:22 AM 40.7019 -112.2919 194° South 320 368 15,400 1,854 Climbing Salt Lake Center
Wed 10:35:23 AM 40.6094 -112.3053 186° South 333 383 17,100 1,525 Climbing Salt Lake Center
Wed 10:36:24 AM 40.5117 -112.3228 188° South 353 406 18,500 1,415 Climbing Salt Lake Center
Wed 10:37:26 AM 40.4119 -112.3433 189° South 365 420 20,000 1,415 Climbing Salt Lake Center
Wed 10:38:27 AM 40.3103 -112.3747 193° South 373 429 21,400 1,366 Climbing Salt Lake Center
Wed 10:39:29 AM 40.2211 -112.4394 209° Southwest 367 422 22,800 1,317 Climbing Salt Lake Center
Wed 10:40:30 AM 40.1317 -112.5042 209° Southwest 369 425 24,100 1,268 Climbing Salt Lake Center
Wed 10:41:32 AM 40.0214 -112.5828 209° Southwest 377 434 25,400 1,171 Climbing Salt Lake Center
Wed 10:42:33 AM 39.9289 -112.6469 208° Southwest 376 433 26,500 927 Climbing Salt Lake Center
Wed 10:43:35 AM 39.8328 -112.7094 207° Southwest 382 440 27,300 829 Climbing Salt Lake Center
Wed 10:44:36 AM 39.7417 -112.7719 208° Southwest 391 450 28,200 683 Climbing Salt Lake Center
Wed 10:45:38 AM 39.6319 -112.8253 201° Southwest 435 501 28,700 622 Climbing Salt Lake Center
Wed 10:47:49 AM 39.3561 -112.8436 183° South 448 516 30,200 715 Climbing Los Angeles Center
Wed 10:48:51 AM 39.2000 -112.8172 173° South 461 531 31,000 387 Climbing Los Angeles Center
Wed 10:49:53 AM 39.0700 -112.7967 173° South 467 537 31,000  Level Los Angeles Center
Wed 10:50:55 AM 38.9369 -112.7772 174° South 473 544 31,000  Level Los Angeles Center
Wed 10:51:57 AM 38.8039 -112.7592 174° South 478 550 31,000  Level Los Angeles Center
Wed 10:52:58 AM 38.6703 -112.7408 174° South 481 554 31,000  Level Los Angeles Center
Wed 10:54:00 AM 38.5381 -112.7231 174° South 480 552 31,000  Level Los Angeles Center
Wed 10:55:02 AM 38.4081 -112.7050 174° South 476 548 31,000  Level Los Angeles Center
Wed 10:56:04 AM 38.2550 -112.6842 174° South 468 539 31,000  Level Los Angeles Center
Wed 10:57:06 AM 38.1283 -112.6675 174° South 462 532 31,000 49 Level Los Angeles Center
Wed 10:58:07 AM 38.0022 -112.6506 174° South 458 527 31,100  Climbing Los Angeles Center
Wed 10:59:09 AM 37.8761 -112.6336 174° South 456 525 31,000 -48 Descending Los Angeles Center
Wed 11:00:11 AM 37.7517 -112.6175 174° South 451 519 31,000  Level Los Angeles Center
Wed 11:01:13 AM 37.6272 -112.6000 174° South 445 512 31,000  Level Los Angeles Center
Wed 11:02:15 AM 37.5003 -112.5831 174° South 449 517 31,000  Level Los Angeles Center
Wed 11:03:17 AM 37.3769 -112.5675 174° South 444 511 31,000  Level Los Angeles Center
Wed 11:04:19 AM 37.2536 -112.5503 174° South 443 510 31,000  Level Los Angeles Center
Wed 11:05:21 AM 37.1072 -112.5319 174° South 441 507 31,000  Level Los Angeles Center
Wed 11:06:35 AM 36.9606 -112.5128 174° South 441 507 31,000  Level Los Angeles Center
Wed 11:07:37 AM 36.8392 -112.4967 174° South 439 505 31,000  Level Los Angeles Center
Wed 11:08:39 AM 36.7178 -112.4811 174° South 438 504 31,000  Level Los Angeles Center
Wed 11:09:41 AM 36.5978 -112.4653 174° South 436 502 31,000  Level Los Angeles Center
Wed 11:10:43 AM 36.4775 -112.4497 174° South 434 499 31,000  Level Los Angeles Center
Wed 11:11:45 AM 36.3347 -112.4325 174° South 430 495 31,000 -48 Level Los Angeles Center
Wed 11:12:47 AM 36.2164 -112.4169 174° South 429 494 30,900 -677 Descending Los Angeles Center
Wed 11:13:49 AM 36.0956 -112.4019 174° South 433 498 29,600 -912 Descending Los Angeles Center
Wed 11:14:52 AM 35.9742 -112.4036 181° South 436 502 29,000 -288 Descending Los Angeles Center
Wed 11:15:54 AM 35.8592 -112.4103 183° South 422 486 29,000  Level Los Angeles Center
Wed 11:16:56 AM 35.7467 -112.4164 183° South 409 471 29,000  Level Los Angeles Center
Wed 11:18:10 AM 35.5856 -112.4222 182° South 413 475 29,000  Level Los Angeles Center
Wed 11:19:12 AM 35.4711 -112.4319 184° South 412 474 29,000  Level Los Angeles Center
Wed 11:20:15 AM 35.3525 -112.4317 180° South 418 481 29,000  Level Los Angeles Center
Wed 11:21:17 AM 35.2347 -112.4011 168° South 427 491 29,000  Level Los Angeles Center
Wed 11:22:19 AM 35.1167 -112.3767 170° South 429 494 29,000 -744 Level Los Angeles Center
Wed 11:23:26 AM 34.9725 -112.3464 170° South 433 498 27,400 -1,488 Descending Albuquerque Center
Wed 11:24:28 AM 34.8481 -112.3181 169° South 451 519 25,800 -1,694 Descending Albuquerque Center
Wed 11:25:30 AM 34.7317 -112.2925 170° South 433 498 23,900 -1,694 Descending Albuquerque Center
Wed 11:26:32 AM 34.6242 -112.2681 169° South 402 463 22,300 -1,694 Descending Albuquerque Center
Wed 11:27:34 AM 34.4944 -112.2408 170° South 396 456 20,400 -1,694 Descending Albuquerque Center
Wed 11:28:36 AM 34.3881 -112.2161 169° South 392 451 18,800 -1,536 Descending Albuquerque Center
Wed 11:29:39 AM 34.2864 -112.1878 167° South 381 438 17,200 -1,488 Descending Albuquerque Center
Wed 11:30:41 AM 34.1889 -112.1633 168° South 364 419 15,700 -1,355 Descending Albuquerque Center
Wed 11:31:43 AM 34.0978 -112.1400 168° South 340 391 14,400 -1,258 Descending Albuquerque Center
Wed 11:32:45 AM 34.0142 -112.1436 182° South 304 350 13,100 -1,452 Descending Albuquerque Center
Wed 11:33:47 AM 33.9133 -112.1556 186° South 306 352 11,400 -1,500 Descending Albuquerque Center
Wed 11:34:49 AM 33.8311 -112.1717 189° South 303 349 10,000 -1,306 Descending Albuquerque Center
Wed 11:35:51 AM 33.7564 -112.1878 190° South 278 320 8,700 -1,210 Descending Albuquerque Center
Wed 11:36:53 AM 33.6889 -112.2017 190° South 251 289 7,500 -1,065 Descending Albuquerque Center
Wed 11:37:55 AM 33.6289 -112.2142 190° South 223 257 6,500 -968 Descending Albuquerque Center
Wed 11:38:57 AM 33.5597 -112.2286 190° South 211 243 5,500 -968 Descending Albuquerque Center
Wed 11:39:59 AM 33.5017 -112.2172 171° South 214 246 4,500 -919 Descending Albuquerque Center
Wed 11:41:01 AM 33.4647 -112.1678 132° Southeast 201 231 3,600 -871 Descending Albuquerque Center
Wed 11:42:03 AM 33.4422 -112.1131 116° Southeast 182 209 2,700 -871 Descending Albuquerque Center
Wed 11:43:05 AM 33.4406 -112.0636 92° East 153 176 1,800 -726 Descending Albuquerque Center
Wed 11:44:07 AM 33.4406 -112.0136 90° East 140 161 1,200 -581 Descending Albuquerque Center

Login

Don't have an account? Register now (free) for customized features, flight alerts, and more!